createdAt,value
2023-05-09T00:00:42.000Z,12.1
2023-05-09T00:04:15.000Z,12.1
2023-05-09T00:07:48.000Z,12.1
2023-05-09T00:11:20.000Z,11.2
2023-05-09T00:14:53.000Z,11.7
2023-05-09T00:18:26.000Z,12.3
2023-05-09T00:21:59.000Z,12.1
2023-05-09T00:25:31.000Z,12.2
2023-05-09T00:29:04.000Z,12.7
2023-05-09T00:31:55.000Z,13.8
2023-05-09T00:35:28.000Z,11.9
2023-05-09T00:39:00.000Z,12.7
2023-05-09T00:42:33.000Z,12.9
2023-05-09T00:46:05.000Z,13.1
2023-05-09T00:49:38.000Z,13.9
2023-05-09T00:53:11.000Z,12.8
2023-05-09T00:56:44.000Z,12.9
2023-05-09T01:00:16.000Z,12.5
2023-05-09T01:03:49.000Z,12.5
2023-05-09T01:07:22.000Z,12.3
2023-05-09T01:10:13.000Z,12.3
2023-05-09T01:13:46.000Z,12.7
2023-05-09T01:17:18.000Z,12.2
2023-05-09T01:20:51.000Z,11.9
2023-05-09T01:24:23.000Z,12.2
2023-05-09T01:27:56.000Z,11.6
2023-05-09T01:31:29.000Z,12.6
2023-05-09T01:35:02.000Z,11.9
2023-05-09T01:38:34.000Z,12
2023-05-09T01:42:07.000Z,12.1
2023-05-09T01:45:40.000Z,11.7
2023-05-09T01:48:31.000Z,12.6
2023-05-09T01:52:03.000Z,11.9
2023-05-09T01:55:36.000Z,12.8
2023-05-09T01:59:09.000Z,12.9
2023-05-09T02:02:42.000Z,12.4
2023-05-09T02:06:14.000Z,11.9
2023-05-09T02:09:47.000Z,12.8
2023-05-09T02:13:20.000Z,12.7
2023-05-09T02:16:53.000Z,13.2
2023-05-09T02:20:25.000Z,13.9
2023-05-09T02:23:58.000Z,13.9
2023-05-09T02:26:49.000Z,13.3
2023-05-09T02:30:21.000Z,13.2
2023-05-09T02:33:54.000Z,13.7
2023-05-09T02:37:27.000Z,12.6
2023-05-09T02:41:00.000Z,13.4
2023-05-09T02:44:32.000Z,13.9
2023-05-09T02:48:05.000Z,14.1
2023-05-09T02:51:38.000Z,13.6
2023-05-09T02:55:11.000Z,13.9
2023-05-09T02:58:43.000Z,13.8
2023-05-09T03:02:16.000Z,13.4
2023-05-09T03:05:07.000Z,12.4
2023-05-09T03:08:40.000Z,13.3
2023-05-09T03:12:13.000Z,13.6
2023-05-09T03:15:45.000Z,13.6
2023-05-09T03:19:18.000Z,14.7
2023-05-09T03:22:51.000Z,13.2
2023-05-09T03:26:23.000Z,12.9
2023-05-09T03:29:56.000Z,13.2
2023-05-09T03:33:29.000Z,12.4
2023-05-09T03:37:01.000Z,12.1
2023-05-09T03:40:34.000Z,13.1
2023-05-09T03:43:25.000Z,13
2023-05-09T03:46:58.000Z,12.8
2023-05-09T03:50:31.000Z,12.8
2023-05-09T03:54:03.000Z,12.1
2023-05-09T03:57:36.000Z,13.1
2023-05-09T04:01:08.000Z,12.9
2023-05-09T04:04:41.000Z,12.9
2023-05-09T04:08:14.000Z,12.9
2023-05-09T04:11:47.000Z,13.1
2023-05-09T04:15:19.000Z,11.7
2023-05-09T04:18:52.000Z,11.6
2023-05-09T04:21:43.000Z,12.8
2023-05-09T04:25:16.000Z,12.8
2023-05-09T04:28:48.000Z,12.3
2023-05-09T04:32:21.000Z,13.8
2023-05-09T04:35:54.000Z,11.3
2023-05-09T04:39:26.000Z,13.2
2023-05-09T04:42:59.000Z,12.1
2023-05-09T04:46:32.000Z,13
2023-05-09T04:50:04.000Z,10.8
2023-05-09T04:53:37.000Z,14
2023-05-09T04:57:10.000Z,13.9
2023-05-09T05:00:02.000Z,12.7
2023-05-09T05:03:35.000Z,14.3
2023-05-09T05:07:11.000Z,14.3
2023-05-09T05:10:44.000Z,11.8
2023-05-09T05:14:16.000Z,14.2
2023-05-09T05:17:49.000Z,11.7
2023-05-09T05:21:21.000Z,11.5
2023-05-09T05:24:54.000Z,13.9
2023-05-09T05:28:27.000Z,15.2
2023-05-09T05:31:59.000Z,11.6
2023-05-09T05:35:32.000Z,15.3
2023-05-09T05:38:23.000Z,12.5
2023-05-09T05:41:56.000Z,14.6
2023-05-09T05:45:28.000Z,16.4
2023-05-09T05:49:01.000Z,13
2023-05-09T05:52:33.000Z,13.1
2023-05-09T05:56:06.000Z,13.1
2023-05-09T05:59:39.000Z,12.7
2023-05-09T06:03:12.000Z,15.4
2023-05-09T06:06:44.000Z,12.9
2023-05-09T06:10:17.000Z,13.4
2023-05-09T06:13:50.000Z,15.2
2023-05-09T06:16:41.000Z,15
2023-05-09T06:20:14.000Z,13.2
2023-05-09T06:27:22.000Z,16.1
2023-05-09T06:30:55.000Z,13.3
2023-05-09T06:34:28.000Z,12.7
2023-05-09T06:38:00.000Z,14.9
2023-05-09T06:41:33.000Z,13.3
2023-05-09T06:45:06.000Z,13.5
2023-05-09T06:48:39.000Z,13.2
2023-05-09T06:55:03.000Z,12
2023-05-09T06:58:35.000Z,12.6
2023-05-09T07:32:58.000Z,12.2
2023-05-09T07:36:36.000Z,15.7
2023-05-09T07:39:27.000Z,15.7
2023-05-09T07:43:00.000Z,15.9
2023-05-09T07:46:32.000Z,14.4
2023-05-09T07:50:05.000Z,15
2023-05-09T07:53:38.000Z,15.6
2023-05-09T07:57:10.000Z,16.5
2023-05-09T08:00:43.000Z,13.5
2023-05-09T08:04:15.000Z,15.7
2023-05-09T08:07:48.000Z,15.8
2023-05-09T08:11:21.000Z,16.2
2023-05-09T08:14:54.000Z,19.2
2023-05-09T08:17:45.000Z,17.5
2023-05-09T08:21:18.000Z,16.1
2023-05-09T08:24:50.000Z,13.9
2023-05-09T08:28:23.000Z,14.4
2023-05-09T08:31:56.000Z,15
2023-05-09T08:35:28.000Z,12.9
2023-05-09T08:39:01.000Z,14.7
2023-05-09T08:42:34.000Z,11.6
2023-05-09T08:46:06.000Z,13.9
2023-05-09T08:49:39.000Z,14.6
2023-05-09T08:53:12.000Z,13.9
2023-05-09T08:56:03.000Z,13.8
2023-05-09T08:59:36.000Z,13.5
2023-05-09T09:03:08.000Z,13.9
2023-05-09T09:06:41.000Z,16.5
2023-05-09T09:10:14.000Z,13.9
2023-05-09T09:13:47.000Z,14.6
2023-05-09T09:17:19.000Z,13.5
2023-05-09T09:20:52.000Z,14.8
2023-05-09T09:24:25.000Z,13.1
2023-05-09T09:27:58.000Z,13.1
2023-05-09T09:31:31.000Z,12.4
2023-05-09T09:34:22.000Z,11.7
2023-05-09T09:37:55.000Z,10.7
2023-05-09T09:41:28.000Z,14.6
2023-05-09T09:45:00.000Z,12.8
2023-05-09T09:48:33.000Z,10.5
2023-05-09T09:52:06.000Z,12.3
2023-05-09T09:55:39.000Z,15.1
2023-05-09T09:59:11.000Z,13.6
2023-05-09T10:02:44.000Z,10.9
2023-05-09T10:06:17.000Z,11.1
2023-05-09T10:09:50.000Z,10.7
2023-05-09T10:12:41.000Z,10.3
2023-05-09T10:16:13.000Z,13.9
2023-05-09T10:20:01.000Z,11.3
2023-05-09T10:23:36.000Z,11.5
2023-05-09T10:27:09.000Z,10.9
2023-05-09T10:30:41.000Z,10.1
2023-05-09T10:34:14.000Z,10
2023-05-09T10:37:47.000Z,9.8
2023-05-09T10:41:19.000Z,8.7
2023-05-09T10:44:52.000Z,10.9
2023-05-09T10:48:25.000Z,8.3
2023-05-09T10:51:16.000Z,8.8
2023-05-09T10:54:49.000Z,7.5
2023-05-09T10:58:21.000Z,8.5
2023-05-09T11:01:54.000Z,9.4
2023-05-09T11:05:27.000Z,8.8
2023-05-09T11:09:00.000Z,8.7
2023-05-09T11:12:32.000Z,7.1
2023-05-09T11:16:05.000Z,7.5
2023-05-09T11:19:38.000Z,7.6
2023-05-09T11:23:11.000Z,7.1
2023-05-09T11:26:43.000Z,7.5
2023-05-09T11:29:35.000Z,7.5
2023-05-09T11:33:07.000Z,7.1
2023-05-09T11:36:40.000Z,6.2
2023-05-09T11:40:13.000Z,5
2023-05-09T11:43:45.000Z,4.8
2023-05-09T11:47:18.000Z,4.5
2023-05-09T11:50:51.000Z,4.3
2023-05-09T11:54:24.000Z,4.4
2023-05-09T11:57:56.000Z,4.3
2023-05-09T12:01:29.000Z,4.3
2023-05-09T12:05:02.000Z,4.3
2023-05-09T12:07:53.000Z,4.1
2023-05-09T12:11:25.000Z,3.9
2023-05-09T12:14:58.000Z,4.8
2023-05-09T12:18:31.000Z,4.1
2023-05-09T12:22:04.000Z,3.9
2023-05-09T12:25:36.000Z,4
2023-05-09T12:29:09.000Z,3.3
2023-05-09T12:32:42.000Z,3.5
2023-05-09T12:36:15.000Z,3.9
2023-05-09T12:39:47.000Z,3.8
2023-05-09T12:43:40.000Z,3.5
2023-05-09T12:46:31.000Z,3.4
2023-05-09T12:50:04.000Z,3
2023-05-09T12:53:37.000Z,3.3
2023-05-09T12:57:09.000Z,3.1
2023-05-09T13:00:42.000Z,3.2
2023-05-09T13:04:15.000Z,3.3
2023-05-09T13:07:48.000Z,3.2
2023-05-09T13:11:21.000Z,3
2023-05-09T13:14:54.000Z,2.7
2023-05-09T13:18:26.000Z,2.7
2023-05-09T13:21:59.000Z,2.7
2023-05-09T13:24:50.000Z,2.8
2023-05-09T13:28:23.000Z,2.9
2023-05-09T13:31:56.000Z,2.9
2023-05-09T13:35:29.000Z,2.9
2023-05-09T13:39:01.000Z,2.9
2023-05-09T13:42:34.000Z,2.8
2023-05-09T13:46:07.000Z,2.9
2023-05-09T13:49:40.000Z,2.7
2023-05-09T13:53:12.000Z,2.7
2023-05-09T13:56:45.000Z,2.7
2023-05-09T14:00:18.000Z,2.5
2023-05-09T14:03:09.000Z,2.7
2023-05-09T14:06:42.000Z,2.9
2023-05-09T14:10:14.000Z,2.9
2023-05-09T14:13:47.000Z,2.5
2023-05-09T14:17:20.000Z,2.8
2023-05-09T14:20:53.000Z,2.9
2023-05-09T14:24:25.000Z,2.8
2023-05-09T14:27:58.000Z,2.8
2023-05-09T14:31:31.000Z,2.6
2023-05-09T14:35:04.000Z,2.6
2023-05-09T14:38:37.000Z,2.5
2023-05-09T14:41:28.000Z,2.7
2023-05-09T14:45:01.000Z,2.8
2023-05-09T14:48:33.000Z,2.5
2023-05-09T14:52:06.000Z,2.4
2023-05-09T14:55:39.000Z,2.6
2023-05-09T14:59:12.000Z,2.6
2023-05-09T15:02:45.000Z,2.6
2023-05-09T15:06:17.000Z,2.5
2023-05-09T15:09:50.000Z,2.6
2023-05-09T15:13:27.000Z,2.6
2023-05-09T15:16:59.000Z,2.7
2023-05-09T15:19:51.000Z,2.6
2023-05-09T15:23:23.000Z,2.6
2023-05-09T15:26:56.000Z,2.4
2023-05-09T15:30:29.000Z,2.6
2023-05-09T15:34:03.000Z,2.7
2023-05-09T15:37:36.000Z,2.4
2023-05-09T15:41:09.000Z,2.3
2023-05-09T15:44:41.000Z,2.3
2023-05-09T15:48:14.000Z,2.4
2023-05-09T15:51:47.000Z,2.6
2023-05-09T15:55:20.000Z,2.6
2023-05-09T15:58:12.000Z,2.8
2023-05-09T16:01:45.000Z,2.5
2023-05-09T16:05:18.000Z,2.6
2023-05-09T16:08:51.000Z,2.5
2023-05-09T16:12:23.000Z,2.5
2023-05-09T16:15:56.000Z,2.7
2023-05-09T16:19:29.000Z,2.6
2023-05-09T16:23:02.000Z,2.6
2023-05-09T16:26:34.000Z,2.6
2023-05-09T16:30:07.000Z,2.6
2023-05-09T16:33:40.000Z,2.6
2023-05-09T16:36:32.000Z,2.6
2023-05-09T16:40:04.000Z,2.3
2023-05-09T16:43:37.000Z,2.4
2023-05-09T16:47:10.000Z,2.5
2023-05-09T16:50:42.000Z,2.6
2023-05-09T16:54:15.000Z,2.8
2023-05-09T16:57:48.000Z,2.5
2023-05-09T17:01:21.000Z,2.4
2023-05-09T17:04:53.000Z,2.4
2023-05-09T17:08:26.000Z,2.6
2023-05-09T17:11:59.000Z,2.5
2023-05-09T17:14:50.000Z,2.6
2023-05-09T17:18:22.000Z,2.6
2023-05-09T17:22:03.000Z,2.6
2023-05-09T17:25:35.000Z,2.6
2023-05-09T17:29:08.000Z,2.2
2023-05-09T17:32:41.000Z,2.7
2023-05-09T17:36:14.000Z,2.7
2023-05-09T17:39:46.000Z,2.6
2023-05-09T17:43:19.000Z,2.7
2023-05-09T17:46:52.000Z,2.4
2023-05-09T17:50:25.000Z,2.6
2023-05-09T17:53:16.000Z,2.6
2023-05-09T17:56:49.000Z,2.6
2023-05-09T18:00:21.000Z,2.5
2023-05-09T18:03:54.000Z,2.5
2023-05-09T18:07:27.000Z,2.8
2023-05-09T18:11:00.000Z,3
2023-05-09T18:14:35.000Z,2.6
2023-05-09T18:18:08.000Z,2.7
2023-05-09T18:21:41.000Z,2.6
2023-05-09T18:25:13.000Z,3.1
2023-05-09T18:28:46.000Z,3
2023-05-09T18:31:37.000Z,2.8
2023-05-09T18:35:10.000Z,2.8
2023-05-09T18:38:43.000Z,2.9
2023-05-09T18:42:16.000Z,2.9
2023-05-09T18:45:49.000Z,3
2023-05-09T18:49:22.000Z,2.6
2023-05-09T18:52:54.000Z,3
2023-05-09T18:56:27.000Z,3.6
2023-05-09T18:59:59.000Z,2.8
2023-05-09T19:03:32.000Z,3.2
2023-05-09T19:07:05.000Z,2.9
2023-05-09T19:09:56.000Z,3.1
2023-05-09T19:13:29.000Z,3.4
2023-05-09T19:17:02.000Z,3
2023-05-09T19:20:35.000Z,3.4
2023-05-09T19:24:07.000Z,3.1
2023-05-09T19:27:40.000Z,3
2023-05-09T19:31:13.000Z,3.3
2023-05-09T19:34:45.000Z,3.3
2023-05-09T19:38:18.000Z,3.1
2023-05-09T19:41:51.000Z,3.1
2023-05-09T19:45:26.000Z,2.9
2023-05-09T19:48:17.000Z,3.2
2023-05-09T19:51:49.000Z,3.1
2023-05-09T19:55:22.000Z,3.2
2023-05-09T19:58:55.000Z,3.1
2023-05-09T20:02:27.000Z,3.6
2023-05-09T20:06:00.000Z,3.6
2023-05-09T20:09:33.000Z,3.1
2023-05-09T20:13:06.000Z,3.2
2023-05-09T20:16:38.000Z,3.2
2023-05-09T20:20:11.000Z,3
2023-05-09T20:23:44.000Z,5.1
2023-05-09T20:26:35.000Z,5
2023-05-09T20:30:07.000Z,6
2023-05-09T20:33:41.000Z,6.8
2023-05-09T20:37:13.000Z,8.3
2023-05-09T20:40:46.000Z,7.9
2023-05-09T20:44:19.000Z,6.5
2023-05-09T20:47:51.000Z,6.5
2023-05-09T20:51:24.000Z,7.7
2023-05-09T20:54:57.000Z,7.5
2023-05-09T20:58:29.000Z,7.9
2023-05-09T21:02:02.000Z,8.1
2023-05-09T21:04:53.000Z,8
2023-05-09T21:08:26.000Z,7.9
2023-05-09T21:11:58.000Z,6.5
2023-05-09T21:15:31.000Z,7.8
2023-05-09T21:19:04.000Z,7.5
2023-05-09T21:22:36.000Z,7.7
2023-05-09T21:26:09.000Z,7.5
2023-05-09T21:29:41.000Z,7.9
2023-05-09T21:33:14.000Z,6.7
2023-05-09T21:36:47.000Z,7.2
2023-05-09T21:40:19.000Z,6.7
2023-05-09T21:43:11.000Z,6.2
2023-05-09T21:46:43.000Z,6.8
2023-05-09T21:50:16.000Z,5.9
2023-05-09T21:53:49.000Z,6.3
2023-05-09T21:57:21.000Z,6.2
2023-05-09T22:00:54.000Z,7.2
2023-05-09T22:04:27.000Z,6
2023-05-09T22:07:59.000Z,6.9
2023-05-09T22:11:32.000Z,9
2023-05-09T22:15:04.000Z,9.4
2023-05-09T22:18:37.000Z,9.8
2023-05-09T22:21:29.000Z,10.6
2023-05-09T22:25:01.000Z,6.8
2023-05-09T22:28:34.000Z,5.1
2023-05-09T22:32:06.000Z,4
2023-05-09T22:35:39.000Z,4
2023-05-09T22:39:12.000Z,3.4
2023-05-09T22:42:44.000Z,3.1
2023-05-09T22:46:17.000Z,2.7
2023-05-09T22:49:50.000Z,2.8
2023-05-09T22:53:23.000Z,2.6
2023-05-09T22:56:56.000Z,2.4
2023-05-09T22:59:46.000Z,2.5
2023-05-09T23:03:19.000Z,2.4
2023-05-09T23:06:52.000Z,2.2
2023-05-09T23:10:25.000Z,2.3
2023-05-09T23:13:57.000Z,2.5
2023-05-09T23:17:30.000Z,2.3
2023-05-09T23:21:03.000Z,2.2
2023-05-09T23:24:35.000Z,2
2023-05-09T23:28:08.000Z,2.2
2023-05-09T23:31:41.000Z,2.5
2023-05-09T23:35:13.000Z,2.1
2023-05-09T23:38:04.000Z,2.1
2023-05-09T23:41:37.000Z,2
2023-05-09T23:45:10.000Z,1.9
2023-05-09T23:48:42.000Z,2.3
2023-05-09T23:52:15.000Z,2.2
2023-05-09T23:55:48.000Z,2.6
2023-05-09T23:59:21.000Z,2.5
